sensor_id;sensor_type;location;lat;lon;timestamp;P1;durP1;ratioP1;P2;durP2;ratioP2
68765;SDS011;55756;45.582;11.484;2024-03-23T00:54:01;30.27;;;16.80;;
68765;SDS011;55756;45.582;11.484;2024-03-23T00:56:28;32.72;;;17.13;;
68765;SDS011;55756;45.582;11.484;2024-03-23T00:58:54;30.73;;;18.45;;
68765;SDS011;55756;45.582;11.484;2024-03-23T01:01:20;29.35;;;17.67;;
68765;SDS011;55756;45.582;11.484;2024-03-23T01:03:46;29.25;;;17.38;;
68765;SDS011;55756;45.582;11.484;2024-03-23T01:06:12;30.33;;;18.02;;
68765;SDS011;55756;45.582;11.484;2024-03-23T01:08:37;28.10;;;17.60;;
68765;SDS011;55756;45.582;11.484;2024-03-23T01:11:03;29.45;;;17.25;;
68765;SDS011;55756;45.582;11.484;2024-03-23T01:13:29;27.80;;;17.15;;
68765;SDS011;55756;45.582;11.484;2024-03-23T01:15:55;32.75;;;18.10;;
68765;SDS011;55756;45.582;11.484;2024-03-23T01:18:22;32.80;;;17.27;;
68765;SDS011;55756;45.582;11.484;2024-03-23T01:20:48;28.33;;;17.48;;
68765;SDS011;55756;45.582;11.484;2024-03-23T01:23:14;26.45;;;17.48;;
68765;SDS011;55756;45.582;11.484;2024-03-23T01:25:40;31.77;;;17.65;;
68765;SDS011;55756;45.582;11.484;2024-03-23T01:28:06;29.00;;;18.00;;
68765;SDS011;55756;45.582;11.484;2024-03-23T01:30:33;30.40;;;18.83;;
68765;SDS011;55756;45.582;11.484;2024-03-23T01:32:59;30.33;;;18.05;;
68765;SDS011;55756;45.582;11.484;2024-03-23T01:35:25;30.02;;;17.85;;
68765;SDS011;55756;45.582;11.484;2024-03-23T01:37:51;29.75;;;17.20;;
68765;SDS011;55756;45.582;11.484;2024-03-23T01:40:17;30.20;;;17.42;;
68765;SDS011;55756;45.582;11.484;2024-03-23T01:42:54;29.63;;;17.40;;
68765;SDS011;55756;45.582;11.484;2024-03-23T01:45:21;28.10;;;17.07;;
68765;SDS011;55756;45.582;11.484;2024-03-23T01:47:46;30.73;;;16.50;;
68765;SDS011;55756;45.582;11.484;2024-03-23T01:50:13;33.35;;;17.73;;
68765;SDS011;55756;45.582;11.484;2024-03-23T01:52:39;28.77;;;17.30;;
68765;SDS011;55756;45.582;11.484;2024-03-23T01:55:04;27.38;;;17.17;;
68765;SDS011;55756;45.582;11.484;2024-03-23T01:57:30;27.75;;;16.33;;
68765;SDS011;55756;45.582;11.484;2024-03-23T01:59:56;27.88;;;15.55;;
68765;SDS011;55756;45.582;11.484;2024-03-23T02:02:26;27.73;;;15.02;;
68765;SDS011;55756;45.582;11.484;2024-03-23T02:04:52;23.25;;;14.52;;
68765;SDS011;55756;45.582;11.484;2024-03-23T02:07:18;25.23;;;15.35;;
68765;SDS011;55756;45.582;11.484;2024-03-23T02:09:44;27.27;;;14.73;;
68765;SDS011;55756;45.582;11.484;2024-03-23T02:12:09;24.23;;;15.10;;
68765;SDS011;55756;45.582;11.484;2024-03-23T02:14:36;25.77;;;14.20;;
68765;SDS011;55756;45.582;11.484;2024-03-23T02:17:01;25.52;;;14.35;;
68765;SDS011;55756;45.582;11.484;2024-03-23T02:19:27;25.55;;;14.05;;
68765;SDS011;55756;45.582;11.484;2024-03-23T02:21:53;24.80;;;14.20;;
68765;SDS011;55756;45.582;11.484;2024-03-23T02:24:18;22.50;;;13.95;;
68765;SDS011;55756;45.582;11.484;2024-03-23T02:26:44;20.33;;;13.00;;
68765;SDS011;55756;45.582;11.484;2024-03-23T02:29:10;22.25;;;13.40;;
68765;SDS011;55756;45.582;11.484;2024-03-23T02:31:35;22.77;;;13.45;;
68765;SDS011;55756;45.582;11.484;2024-03-23T02:34:01;23.20;;;14.65;;
68765;SDS011;55756;45.582;11.484;2024-03-23T02:36:27;22.42;;;13.80;;
68765;SDS011;55756;45.582;11.484;2024-03-23T02:38:55;24.75;;;14.15;;
68765;SDS011;55756;45.582;11.484;2024-03-23T02:41:21;24.17;;;13.23;;
68765;SDS011;55756;45.582;11.484;2024-03-23T02:43:51;22.45;;;13.27;;
68765;SDS011;55756;45.582;11.484;2024-03-23T02:46:17;23.70;;;12.95;;
68765;SDS011;55756;45.582;11.484;2024-03-23T02:48:43;22.02;;;13.65;;
68765;SDS011;55756;45.582;11.484;2024-03-23T02:51:08;25.58;;;15.00;;
68765;SDS011;55756;45.582;11.484;2024-03-23T02:53:34;27.00;;;14.65;;
68765;SDS011;55756;45.582;11.484;2024-03-23T02:56:00;25.00;;;15.18;;
68765;SDS011;55756;45.582;11.484;2024-03-23T02:58:26;27.45;;;16.35;;
68765;SDS011;55756;45.582;11.484;2024-03-23T03:00:52;26.10;;;14.85;;
68765;SDS011;55756;45.582;11.484;2024-03-23T03:03:17;29.30;;;15.60;;
68765;SDS011;55756;45.582;11.484;2024-03-23T03:05:43;30.90;;;17.25;;
68765;SDS011;55756;45.582;11.484;2024-03-23T03:08:09;31.95;;;16.85;;
68765;SDS011;55756;45.582;11.484;2024-03-23T03:10:34;28.55;;;16.73;;
68765;SDS011;55756;45.582;11.484;2024-03-23T03:13:01;26.73;;;16.23;;
68765;SDS011;55756;45.582;11.484;2024-03-23T03:15:27;28.58;;;16.80;;
68765;SDS011;55756;45.582;11.484;2024-03-23T03:17:53;32.95;;;17.73;;
68765;SDS011;55756;45.582;11.484;2024-03-23T03:20:19;28.88;;;16.90;;
68765;SDS011;55756;45.582;11.484;2024-03-23T03:22:47;30.35;;;17.20;;
68765;SDS011;55756;45.582;11.484;2024-03-23T03:25:12;30.90;;;17.00;;
68765;SDS011;55756;45.582;11.484;2024-03-23T03:27:38;28.42;;;17.27;;
68765;SDS011;55756;45.582;11.484;2024-03-23T03:30:04;29.60;;;16.67;;
68765;SDS011;55756;45.582;11.484;2024-03-23T03:32:31;27.05;;;16.05;;
68765;SDS011;55756;45.582;11.484;2024-03-23T03:34:57;30.02;;;16.27;;
68765;SDS011;55756;45.582;11.484;2024-03-23T03:37:23;26.95;;;16.02;;
68765;SDS011;55756;45.582;11.484;2024-03-23T03:39:49;25.75;;;14.98;;
68765;SDS011;55756;45.582;11.484;2024-03-23T03:42:15;23.25;;;14.45;;
68765;SDS011;55756;45.582;11.484;2024-03-23T03:44:41;24.52;;;14.38;;
68765;SDS011;55756;45.582;11.484;2024-03-23T03:47:06;25.15;;;14.02;;
68765;SDS011;55756;45.582;11.484;2024-03-23T03:49:32;22.67;;;13.68;;
68765;SDS011;55756;45.582;11.484;2024-03-23T03:51:58;25.38;;;13.45;;
68765;SDS011;55756;45.582;11.484;2024-03-23T03:54:24;21.60;;;13.35;;
68765;SDS011;55756;45.582;11.484;2024-03-23T03:56:49;23.15;;;13.88;;
68765;SDS011;55756;45.582;11.484;2024-03-23T03:59:15;25.55;;;14.73;;
68765;SDS011;55756;45.582;11.484;2024-03-23T04:01:42;24.15;;;13.85;;
68765;SDS011;55756;45.582;11.484;2024-03-23T04:04:08;24.33;;;14.13;;
68765;SDS011;55756;45.582;11.484;2024-03-23T04:06:33;24.52;;;14.82;;
68765;SDS011;55756;45.582;11.484;2024-03-23T04:08:59;23.33;;;14.30;;
68765;SDS011;55756;45.582;11.484;2024-03-23T04:11:25;26.10;;;14.90;;
68765;SDS011;55756;45.582;11.484;2024-03-23T04:13:50;22.92;;;14.50;;
68765;SDS011;55756;45.582;11.484;2024-03-23T04:16:26;28.17;;;14.52;;
68765;SDS011;55756;45.582;11.484;2024-03-23T04:18:53;23.65;;;14.00;;
68765;SDS011;55756;45.582;11.484;2024-03-23T04:21:19;24.23;;;14.80;;
68765;SDS011;55756;45.582;11.484;2024-03-23T04:23:45;22.95;;;14.02;;
68765;SDS011;55756;45.582;11.484;2024-03-23T04:26:11;24.23;;;14.73;;
68765;SDS011;55756;45.582;11.484;2024-03-23T04:28:36;23.77;;;14.52;;
68765;SDS011;55756;45.582;11.484;2024-03-23T04:31:05;25.35;;;14.48;;
68765;SDS011;55756;45.582;11.484;2024-03-23T04:33:31;26.50;;;14.93;;
68765;SDS011;55756;45.582;11.484;2024-03-23T04:35:57;29.83;;;14.63;;
68765;SDS011;55756;45.582;11.484;2024-03-23T04:38:23;26.80;;;14.40;;
68765;SDS011;55756;45.582;11.484;2024-03-23T04:40:58;27.98;;;15.13;;
68765;SDS011;55756;45.582;11.484;2024-03-23T04:43:27;27.88;;;15.75;;
68765;SDS011;55756;45.582;11.484;2024-03-23T04:45:53;24.13;;;14.77;;
68765;SDS011;55756;45.582;11.484;2024-03-23T04:48:22;25.20;;;14.68;;
68765;SDS011;55756;45.582;11.484;2024-03-23T04:50:49;27.15;;;14.48;;
68765;SDS011;55756;45.582;11.484;2024-03-23T04:53:15;26.85;;;14.55;;
68765;SDS011;55756;45.582;11.484;2024-03-23T04:55:41;25.20;;;14.02;;
68765;SDS011;55756;45.582;11.484;2024-03-23T04:58:07;26.50;;;14.27;;
68765;SDS011;55756;45.582;11.484;2024-03-23T05:00:33;24.83;;;14.75;;
68765;SDS011;55756;45.582;11.484;2024-03-23T05:02:59;25.17;;;14.90;;
68765;SDS011;55756;45.582;11.484;2024-03-23T05:05:25;23.80;;;14.35;;
68765;SDS011;55756;45.582;11.484;2024-03-23T05:07:50;27.30;;;16.10;;
68765;SDS011;55756;45.582;11.484;2024-03-23T05:10:16;25.13;;;14.98;;
68765;SDS011;55756;45.582;11.484;2024-03-23T05:12:42;28.23;;;15.23;;
68765;SDS011;55756;45.582;11.484;2024-03-23T05:15:09;30.67;;;16.20;;
68765;SDS011;55756;45.582;11.484;2024-03-23T05:17:34;27.48;;;16.20;;
68765;SDS011;55756;45.582;11.484;2024-03-23T05:20:01;28.17;;;16.42;;
68765;SDS011;55756;45.582;11.484;2024-03-23T05:22:27;29.92;;;16.50;;
68765;SDS011;55756;45.582;11.484;2024-03-23T05:24:53;33.00;;;19.67;;
68765;SDS011;55756;45.582;11.484;2024-03-23T05:27:19;32.08;;;19.05;;
68765;SDS011;55756;45.582;11.484;2024-03-23T05:29:45;28.50;;;16.60;;
68765;SDS011;55756;45.582;11.484;2024-03-23T05:32:10;29.52;;;15.52;;
68765;SDS011;55756;45.582;11.484;2024-03-23T05:34:36;29.15;;;15.05;;
68765;SDS011;55756;45.582;11.484;2024-03-23T05:37:02;27.95;;;15.40;;
68765;SDS011;55756;45.582;11.484;2024-03-23T05:39:28;27.40;;;14.43;;
68765;SDS011;55756;45.582;11.484;2024-03-23T05:41:53;26.80;;;14.70;;
68765;SDS011;55756;45.582;11.484;2024-03-23T05:44:19;25.30;;;14.25;;
68765;SDS011;55756;45.582;11.484;2024-03-23T05:46:45;29.40;;;14.55;;
68765;SDS011;55756;45.582;11.484;2024-03-23T05:49:13;25.13;;;14.05;;
68765;SDS011;55756;45.582;11.484;2024-03-23T05:51:40;26.10;;;15.43;;
68765;SDS011;55756;45.582;11.484;2024-03-23T05:54:06;26.95;;;15.52;;
68765;SDS011;55756;45.582;11.484;2024-03-23T05:56:31;31.77;;;16.15;;
68765;SDS011;55756;45.582;11.484;2024-03-23T05:59:00;27.23;;;16.10;;
68765;SDS011;55756;45.582;11.484;2024-03-23T06:01:26;31.02;;;15.98;;
68765;SDS011;55756;45.582;11.484;2024-03-23T06:03:54;29.85;;;16.63;;
68765;SDS011;55756;45.582;11.484;2024-03-23T06:06:19;29.08;;;16.52;;
68765;SDS011;55756;45.582;11.484;2024-03-23T06:08:45;31.02;;;17.50;;
68765;SDS011;55756;45.582;11.484;2024-03-23T06:11:11;33.92;;;18.75;;
68765;SDS011;55756;45.582;11.484;2024-03-23T06:13:37;81.32;;;33.55;;
68765;SDS011;55756;45.582;11.484;2024-03-23T06:16:03;97.60;;;40.75;;
68765;SDS011;55756;45.582;11.484;2024-03-23T06:18:29;111.05;;;48.15;;
68765;SDS011;55756;45.582;11.484;2024-03-23T06:20:54;77.15;;;34.15;;
68765;SDS011;55756;45.582;11.484;2024-03-23T06:23:20;62.45;;;31.38;;
68765;SDS011;55756;45.582;11.484;2024-03-23T06:25:46;58.78;;;32.08;;
68765;SDS011;55756;45.582;11.484;2024-03-23T06:28:12;75.07;;;35.97;;
68765;SDS011;55756;45.582;11.484;2024-03-23T06:30:38;59.20;;;31.30;;
68765;SDS011;55756;45.582;11.484;2024-03-23T06:33:04;46.35;;;26.77;;
68765;SDS011;55756;45.582;11.484;2024-03-23T06:35:30;42.85;;;23.40;;
68765;SDS011;55756;45.582;11.484;2024-03-23T06:37:56;34.22;;;21.33;;
68765;SDS011;55756;45.582;11.484;2024-03-23T06:40:23;31.58;;;20.13;;
68765;SDS011;55756;45.582;11.484;2024-03-23T06:42:49;31.75;;;19.02;;
68765;SDS011;55756;45.582;11.484;2024-03-23T06:45:15;31.73;;;18.35;;
68765;SDS011;55756;45.582;11.484;2024-03-23T06:47:41;32.67;;;19.05;;
68765;SDS011;55756;45.582;11.484;2024-03-23T06:50:07;31.90;;;18.60;;
68765;SDS011;55756;45.582;11.484;2024-03-23T06:52:35;34.75;;;19.35;;
68765;SDS011;55756;45.582;11.484;2024-03-23T06:55:01;33.42;;;18.63;;
68765;SDS011;55756;45.582;11.484;2024-03-23T06:57:29;31.92;;;18.15;;
68765;SDS011;55756;45.582;11.484;2024-03-23T06:59:55;36.03;;;19.13;;
68765;SDS011;55756;45.582;11.484;2024-03-23T07:02:21;35.95;;;20.08;;
68765;SDS011;55756;45.582;11.484;2024-03-23T07:04:46;36.40;;;21.33;;
68765;SDS011;55756;45.582;11.484;2024-03-23T07:07:12;38.83;;;20.88;;
68765;SDS011;55756;45.582;11.484;2024-03-23T07:09:38;36.50;;;21.80;;
68765;SDS011;55756;45.582;11.484;2024-03-23T07:12:04;55.00;;;24.75;;
68765;SDS011;55756;45.582;11.484;2024-03-23T07:14:30;54.85;;;26.90;;
68765;SDS011;55756;45.582;11.484;2024-03-23T07:16:55;50.80;;;26.85;;
68765;SDS011;55756;45.582;11.484;2024-03-23T07:19:21;45.53;;;25.30;;
68765;SDS011;55756;45.582;11.484;2024-03-23T07:21:48;42.67;;;24.95;;
68765;SDS011;55756;45.582;11.484;2024-03-23T07:24:14;46.97;;;25.00;;
68765;SDS011;55756;45.582;11.484;2024-03-23T07:26:40;44.35;;;24.88;;
68765;SDS011;55756;45.582;11.484;2024-03-23T07:29:06;39.80;;;22.98;;
68765;SDS011;55756;45.582;11.484;2024-03-23T07:31:32;39.92;;;22.63;;
68765;SDS011;55756;45.582;11.484;2024-03-23T07:33:58;35.78;;;22.38;;
68765;SDS011;55756;45.582;11.484;2024-03-23T07:36:23;38.55;;;22.23;;
68765;SDS011;55756;45.582;11.484;2024-03-23T07:38:50;37.65;;;23.38;;
68765;SDS011;55756;45.582;11.484;2024-03-23T07:41:17;39.47;;;23.58;;
68765;SDS011;55756;45.582;11.484;2024-03-23T07:43:44;36.60;;;21.63;;
68765;SDS011;55756;45.582;11.484;2024-03-23T07:46:10;38.63;;;22.60;;
68765;SDS011;55756;45.582;11.484;2024-03-23T07:48:37;37.05;;;22.92;;
68765;SDS011;55756;45.582;11.484;2024-03-23T07:51:04;41.03;;;23.92;;
68765;SDS011;55756;45.582;11.484;2024-03-23T07:53:34;36.15;;;22.92;;
68765;SDS011;55756;45.582;11.484;2024-03-23T07:56:01;39.75;;;24.17;;
68765;SDS011;55756;45.582;11.484;2024-03-23T07:58:31;38.88;;;24.70;;
68765;SDS011;55756;45.582;11.484;2024-03-23T08:01:02;40.47;;;25.02;;
68765;SDS011;55756;45.582;11.484;2024-03-23T08:03:30;39.15;;;24.05;;
68765;SDS011;55756;45.582;11.484;2024-03-23T08:05:55;36.75;;;23.58;;
68765;SDS011;55756;45.582;11.484;2024-03-23T08:08:21;39.35;;;23.58;;
68765;SDS011;55756;45.582;11.484;2024-03-23T08:10:48;34.05;;;22.08;;
68765;SDS011;55756;45.582;11.484;2024-03-23T08:13:32;32.85;;;20.52;;
68765;SDS011;55756;45.582;11.484;2024-03-23T08:15:59;33.40;;;20.10;;
68765;SDS011;55756;45.582;11.484;2024-03-23T08:18:29;35.88;;;20.42;;
68765;SDS011;55756;45.582;11.484;2024-03-23T08:20:56;34.00;;;19.80;;
68765;SDS011;55756;45.582;11.484;2024-03-23T08:23:30;33.17;;;20.17;;
68765;SDS011;55756;45.582;11.484;2024-03-23T08:25:59;33.45;;;20.67;;
68765;SDS011;55756;45.582;11.484;2024-03-23T08:28:26;35.60;;;20.88;;
68765;SDS011;55756;45.582;11.484;2024-03-23T08:30:53;33.92;;;19.38;;
68765;SDS011;55756;45.582;11.484;2024-03-23T08:33:19;30.52;;;19.35;;
68765;SDS011;55756;45.582;11.484;2024-03-23T08:36:00;34.47;;;20.20;;
68765;SDS011;55756;45.582;11.484;2024-03-23T08:38:29;32.45;;;19.30;;
68765;SDS011;55756;45.582;11.484;2024-03-23T08:41:05;31.67;;;18.75;;
68765;SDS011;55756;45.582;11.484;2024-03-23T08:46:08;32.72;;;20.98;;
68765;SDS011;55756;45.582;11.484;2024-03-23T08:48:38;35.38;;;21.25;;
68765;SDS011;55756;45.582;11.484;2024-03-23T08:51:06;35.80;;;20.05;;
68765;SDS011;55756;45.582;11.484;2024-03-23T08:53:33;33.40;;;21.02;;
68765;SDS011;55756;45.582;11.484;2024-03-23T08:56:03;37.05;;;22.65;;
68765;SDS011;55756;45.582;11.484;2024-03-23T08:58:31;36.80;;;22.02;;
68765;SDS011;55756;45.582;11.484;2024-03-23T09:01:02;38.78;;;22.88;;
68765;SDS011;55756;45.582;11.484;2024-03-23T09:03:30;37.15;;;22.58;;
68765;SDS011;55756;45.582;11.484;2024-03-23T09:05:56;36.60;;;23.08;;
68765;SDS011;55756;45.582;11.484;2024-03-23T09:08:23;36.40;;;21.85;;
68765;SDS011;55756;45.582;11.484;2024-03-23T09:10:49;39.08;;;23.27;;
68765;SDS011;55756;45.582;11.484;2024-03-23T09:13:15;41.42;;;24.15;;
68765;SDS011;55756;45.582;11.484;2024-03-23T09:15:48;39.05;;;24.38;;
68765;SDS011;55756;45.582;11.484;2024-03-23T09:18:15;39.30;;;23.15;;
68765;SDS011;55756;45.582;11.484;2024-03-23T09:20:41;41.05;;;24.35;;
68765;SDS011;55756;45.582;11.484;2024-03-23T09:23:07;40.65;;;25.48;;
68765;SDS011;55756;45.582;11.484;2024-03-23T09:25:35;39.65;;;23.98;;
68765;SDS011;55756;45.582;11.484;2024-03-23T09:28:05;40.15;;;24.35;;
68765;SDS011;55756;45.582;11.484;2024-03-23T09:30:32;39.40;;;25.20;;
68765;SDS011;55756;45.582;11.484;2024-03-23T09:32:58;42.65;;;26.25;;
68765;SDS011;55756;45.582;11.484;2024-03-23T09:35:24;40.38;;;24.33;;
68765;SDS011;55756;45.582;11.484;2024-03-23T09:37:50;42.03;;;25.52;;
68765;SDS011;55756;45.582;11.484;2024-03-23T09:40:15;41.97;;;26.50;;
68765;SDS011;55756;45.582;11.484;2024-03-23T09:42:41;43.45;;;25.65;;
68765;SDS011;55756;45.582;11.484;2024-03-23T09:45:16;40.70;;;26.77;;
68765;SDS011;55756;45.582;11.484;2024-03-23T09:47:47;46.13;;;26.75;;
68765;SDS011;55756;45.582;11.484;2024-03-23T09:50:14;44.67;;;27.17;;
68765;SDS011;55756;45.582;11.484;2024-03-23T09:52:40;44.30;;;26.40;;
68765;SDS011;55756;45.582;11.484;2024-03-23T09:55:07;41.33;;;27.08;;
68765;SDS011;55756;45.582;11.484;2024-03-23T09:57:34;38.33;;;24.70;;
68765;SDS011;55756;45.582;11.484;2024-03-23T10:00:00;44.90;;;27.95;;
68765;SDS011;55756;45.582;11.484;2024-03-23T10:02:26;43.33;;;27.85;;
68765;SDS011;55756;45.582;11.484;2024-03-23T10:04:54;43.90;;;28.08;;
68765;SDS011;55756;45.582;11.484;2024-03-23T10:07:20;43.63;;;27.08;;
68765;SDS011;55756;45.582;11.484;2024-03-23T10:09:47;43.60;;;27.60;;
68765;SDS011;55756;45.582;11.484;2024-03-23T10:12:13;42.53;;;28.00;;
68765;SDS011;55756;45.582;11.484;2024-03-23T10:14:41;42.17;;;27.40;;
68765;SDS011;55756;45.582;11.484;2024-03-23T10:17:26;43.67;;;28.23;;
68765;SDS011;55756;45.582;11.484;2024-03-23T10:19:52;41.00;;;27.23;;
68765;SDS011;55756;45.582;11.484;2024-03-23T10:22:19;42.85;;;28.40;;
68765;SDS011;55756;45.582;11.484;2024-03-23T10:24:46;41.90;;;26.92;;
68765;SDS011;55756;45.582;11.484;2024-03-23T10:27:16;45.25;;;28.38;;
68765;SDS011;55756;45.582;11.484;2024-03-23T10:29:44;44.10;;;27.55;;
68765;SDS011;55756;45.582;11.484;2024-03-23T10:32:16;45.05;;;28.25;;
68765;SDS011;55756;45.582;11.484;2024-03-23T10:34:43;44.15;;;27.92;;
68765;SDS011;55756;45.582;11.484;2024-03-23T10:37:09;35.03;;;29.77;;
68765;SDS011;55756;45.582;11.484;2024-03-23T10:39:36;42.70;;;26.98;;
68765;SDS011;55756;45.582;11.484;2024-03-23T10:42:03;42.58;;;26.70;;
68765;SDS011;55756;45.582;11.484;2024-03-23T10:44:33;44.17;;;27.02;;
68765;SDS011;55756;45.582;11.484;2024-03-23T10:47:00;35.00;;;29.80;;
68765;SDS011;55756;45.582;11.484;2024-03-23T10:49:27;41.40;;;26.00;;
68765;SDS011;55756;45.582;11.484;2024-03-23T10:52:01;41.97;;;26.55;;
68765;SDS011;55756;45.582;11.484;2024-03-23T10:54:29;44.58;;;27.63;;
68765;SDS011;55756;45.582;11.484;2024-03-23T10:59:31;40.50;;;27.42;;
68765;SDS011;55756;45.582;11.484;2024-03-23T11:01:58;41.08;;;27.60;;
68765;SDS011;55756;45.582;11.484;2024-03-23T11:04:38;44.03;;;27.83;;
68765;SDS011;55756;45.582;11.484;2024-03-23T11:07:49;41.35;;;26.38;;
68765;SDS011;55756;45.582;11.484;2024-03-23T11:09:50;35.83;;;28.85;;
68765;SDS011;55756;45.582;11.484;2024-03-23T11:14:52;43.63;;;28.35;;
68765;SDS011;55756;45.582;11.484;2024-03-23T11:17:23;45.92;;;28.45;;
68765;SDS011;55756;45.582;11.484;2024-03-23T11:19:53;44.22;;;28.27;;
68765;SDS011;55756;45.582;11.484;2024-03-23T11:22:37;45.05;;;27.73;;
68765;SDS011;55756;45.582;11.484;2024-03-23T11:25:17;39.47;;;27.65;;
68765;SDS011;55756;45.582;11.484;2024-03-23T11:27:51;39.50;;;26.98;;
68765;SDS011;55756;45.582;11.484;2024-03-23T11:30:21;35.65;;;27.77;;
68765;SDS011;55756;45.582;11.484;2024-03-23T11:32:48;39.35;;;26.48;;
68765;SDS011;55756;45.582;11.484;2024-03-23T11:35:24;42.35;;;26.58;;
68765;SDS011;55756;45.582;11.484;2024-03-23T11:40:35;50.97;;;28.10;;
68765;SDS011;55756;45.582;11.484;2024-03-23T11:43:03;43.58;;;27.35;;
68765;SDS011;55756;45.582;11.484;2024-03-23T11:45:34;42.45;;;27.92;;
68765;SDS011;55756;45.582;11.484;2024-03-23T11:48:01;39.53;;;28.13;;
68765;SDS011;55756;45.582;11.484;2024-03-23T11:50:31;35.65;;;30.23;;
68765;SDS011;55756;45.582;11.484;2024-03-23T11:53:06;33.53;;;28.38;;
68765;SDS011;55756;45.582;11.484;2024-03-23T11:55:48;45.55;;;28.05;;
68765;SDS011;55756;45.582;11.484;2024-03-23T11:58:15;45.75;;;28.02;;
68765;SDS011;55756;45.582;11.484;2024-03-23T12:00:49;42.05;;;26.80;;
68765;SDS011;55756;45.582;11.484;2024-03-23T12:03:16;41.20;;;28.63;;
68765;SDS011;55756;45.582;11.484;2024-03-23T12:05:47;46.50;;;29.02;;
68765;SDS011;55756;45.582;11.484;2024-03-23T12:08:18;39.05;;;31.17;;
68765;SDS011;55756;45.582;11.484;2024-03-23T12:11:12;35.80;;;30.38;;
68765;SDS011;55756;45.582;11.484;2024-03-23T12:13:40;44.65;;;28.52;;
68765;SDS011;55756;45.582;11.484;2024-03-23T12:18:39;35.63;;;29.95;;
68765;SDS011;55756;45.582;11.484;2024-03-23T12:21:06;43.20;;;28.27;;
68765;SDS011;55756;45.582;11.484;2024-03-23T12:23:32;40.13;;;31.42;;
68765;SDS011;55756;45.582;11.484;2024-03-23T12:25:58;45.45;;;28.95;;
68765;SDS011;55756;45.582;11.484;2024-03-23T12:28:24;45.03;;;26.80;;
68765;SDS011;55756;45.582;11.484;2024-03-23T12:30:50;38.05;;;29.83;;
68765;SDS011;55756;45.582;11.484;2024-03-23T12:33:18;50.78;;;29.13;;
68765;SDS011;55756;45.582;11.484;2024-03-23T12:35:44;46.05;;;29.85;;
68765;SDS011;55756;45.582;11.484;2024-03-23T12:38:09;45.28;;;29.80;;
68765;SDS011;55756;45.582;11.484;2024-03-23T12:40:35;39.90;;;30.67;;
68765;SDS011;55756;45.582;11.484;2024-03-23T12:43:01;44.75;;;28.77;;
68765;SDS011;55756;45.582;11.484;2024-03-23T12:47:55;43.03;;;25.90;;
68765;SDS011;55756;45.582;11.484;2024-03-23T12:50:21;40.40;;;24.42;;
68765;SDS011;55756;45.582;11.484;2024-03-23T12:52:47;38.85;;;21.95;;
68765;SDS011;55756;45.582;11.484;2024-03-23T12:55:13;30.40;;;24.45;;
68765;SDS011;55756;45.582;11.484;2024-03-23T12:57:38;37.55;;;29.38;;
68765;SDS011;55756;45.582;11.484;2024-03-23T13:00:06;42.75;;;26.77;;
68765;SDS011;55756;45.582;11.484;2024-03-23T13:02:32;38.20;;;24.55;;
68765;SDS011;55756;45.582;11.484;2024-03-23T13:05:00;32.25;;;26.42;;
68765;SDS011;55756;45.582;11.484;2024-03-23T13:07:25;28.08;;;22.30;;
68765;SDS011;55756;45.582;11.484;2024-03-23T13:09:51;32.70;;;20.35;;
68765;SDS011;55756;45.582;11.484;2024-03-23T13:12:18;31.65;;;19.67;;
68765;SDS011;55756;45.582;11.484;2024-03-23T13:14:47;30.42;;;19.95;;
68765;SDS011;55756;45.582;11.484;2024-03-23T13:17:13;27.33;;;22.30;;
68765;SDS011;55756;45.582;11.484;2024-03-23T13:19:39;27.40;;;18.65;;
68765;SDS011;55756;45.582;11.484;2024-03-23T13:22:05;29.27;;;18.63;;
68765;SDS011;55756;45.582;11.484;2024-03-23T13:24:30;25.67;;;15.43;;
68765;SDS011;55756;45.582;11.484;2024-03-23T13:26:57;24.88;;;15.48;;
68765;SDS011;55756;45.582;11.484;2024-03-23T13:29:23;21.98;;;13.63;;
68765;SDS011;55756;45.582;11.484;2024-03-23T13:31:50;25.60;;;15.27;;
68765;SDS011;55756;45.582;11.484;2024-03-23T13:34:17;23.40;;;14.60;;
68765;SDS011;55756;45.582;11.484;2024-03-23T13:36:43;24.13;;;14.98;;
68765;SDS011;55756;45.582;11.484;2024-03-23T13:39:10;22.75;;;16.42;;
68765;SDS011;55756;45.582;11.484;2024-03-23T13:41:39;30.60;;;15.38;;
68765;SDS011;55756;45.582;11.484;2024-03-23T13:44:09;26.17;;;15.45;;
68765;SDS011;55756;45.582;11.484;2024-03-23T13:46:39;22.58;;;16.77;;
68765;SDS011;55756;45.582;11.484;2024-03-23T13:49:08;27.35;;;16.05;;
68765;SDS011;55756;45.582;11.484;2024-03-23T13:51:51;21.30;;;15.85;;
68765;SDS011;55756;45.582;11.484;2024-03-23T13:54:18;21.15;;;15.38;;
68765;SDS011;55756;45.582;11.484;2024-03-23T13:56:44;25.08;;;14.88;;
68765;SDS011;55756;45.582;11.484;2024-03-23T13:59:09;20.33;;;14.68;;
68765;SDS011;55756;45.582;11.484;2024-03-23T14:01:36;24.88;;;17.45;;
68765;SDS011;55756;45.582;11.484;2024-03-23T14:04:01;24.15;;;17.90;;
68765;SDS011;55756;45.582;11.484;2024-03-23T14:06:27;26.02;;;15.57;;
68765;SDS011;55756;45.582;11.484;2024-03-23T14:08:53;26.95;;;14.35;;
68765;SDS011;55756;45.582;11.484;2024-03-23T14:11:18;24.88;;;14.88;;
68765;SDS011;55756;45.582;11.484;2024-03-23T14:13:44;21.30;;;16.58;;
68765;SDS011;55756;45.582;11.484;2024-03-23T14:16:10;25.48;;;15.35;;
68765;SDS011;55756;45.582;11.484;2024-03-23T14:18:35;22.77;;;16.63;;
68765;SDS011;55756;45.582;11.484;2024-03-23T14:21:01;29.75;;;15.82;;
68765;SDS011;55756;45.582;11.484;2024-03-23T14:23:28;23.45;;;15.13;;
68765;SDS011;55756;45.582;11.484;2024-03-23T14:25:55;23.67;;;14.00;;
68765;SDS011;55756;45.582;11.484;2024-03-23T14:28:22;19.70;;;14.30;;
68765;SDS011;55756;45.582;11.484;2024-03-23T14:30:51;18.15;;;13.65;;
68765;SDS011;55756;45.582;11.484;2024-03-23T14:33:20;20.35;;;12.55;;
68765;SDS011;55756;45.582;11.484;2024-03-23T14:35:52;18.25;;;12.82;;
68765;SDS011;55756;45.582;11.484;2024-03-23T14:38:18;20.45;;;10.65;;
68765;SDS011;55756;45.582;11.484;2024-03-23T14:40:45;16.08;;;11.18;;
68765;SDS011;55756;45.582;11.484;2024-03-23T14:43:11;19.77;;;12.18;;
68765;SDS011;55756;45.582;11.484;2024-03-23T14:45:37;22.02;;;12.77;;
68765;SDS011;55756;45.582;11.484;2024-03-23T14:48:03;19.27;;;13.57;;
68765;SDS011;55756;45.582;11.484;2024-03-23T14:50:33;21.27;;;13.00;;
68765;SDS011;55756;45.582;11.484;2024-03-23T14:53:00;17.83;;;12.68;;
68765;SDS011;55756;45.582;11.484;2024-03-23T14:55:25;23.67;;;14.02;;
68765;SDS011;55756;45.582;11.484;2024-03-23T14:57:51;23.17;;;13.35;;
68765;SDS011;55756;45.582;11.484;2024-03-23T15:00:17;23.38;;;13.48;;
68765;SDS011;55756;45.582;11.484;2024-03-23T15:02:43;22.27;;;14.27;;
68765;SDS011;55756;45.582;11.484;2024-03-23T15:05:10;22.73;;;13.85;;
68765;SDS011;55756;45.582;11.484;2024-03-23T15:07:36;17.80;;;13.63;;
68765;SDS011;55756;45.582;11.484;2024-03-23T15:10:05;21.63;;;12.45;;
68765;SDS011;55756;45.582;11.484;2024-03-23T15:12:32;21.10;;;13.07;;
68765;SDS011;55756;45.582;11.484;2024-03-23T15:14:58;20.73;;;12.18;;
68765;SDS011;55756;45.582;11.484;2024-03-23T15:17:25;18.20;;;11.48;;